Aviation Digital Data Service (ADDS)

Output produced by METARs form (0942 UTC 24 March 2019)
found at http://www.aviationweather.gov/metar/data/
 
Forecast for: DNCA (CALABAR , NG)
Text: TAF DNCA 240345Z 2406/2512 VRB02KT 7000 BKN008
Forecast period: 0600 to 0800 UTC 24 March 2019
Forecast type: FROM: standard forecast or significant change
Winds: variable direction winds at 2 MPH (2 knots; 1.0 m/s)
Visibility: 4 miles (7 km)
Ceiling: 800 feet AGL
Clouds: broken clouds at 800 feet AGL
Weather: no significant weather forecast for this period
Text: BECMG 2408/2410 22010KT BKN010 FEW020CB
Forecast period: 0800 UTC 24 March 2019 to 1200 UTC 25 March 2019
Forecast type: BECOMING: Conditions expected to become as follows by 1000 UTC 24 March 2019
Winds: from the SW (220 degrees) at 12 MPH (10 knots; 5.1 m/s)
Visibility: 4 miles (7 km)
Ceiling: 1000 feet AGL
Clouds: broken clouds at 1000 feet AGL
few clouds at 2000 feet AGL
Weather: no significant weather forecast for this period
Text: TEMPO 2413/2417 TS
Forecast period: 1300 to 1700 UTC 24 March 2019
Forecast type: TEMPORARY: The following changes expected for less than half the time period
Visibility: missing
Ceiling: unknown
Clouds: missing
Weather: TS  (thunderstorm)